createdAt,value
2022-09-06T00:04:15.710Z,12.24
2022-09-06T00:09:22.481Z,12.24
2022-09-06T00:14:29.648Z,12.24
2022-09-06T00:19:36.846Z,12.24
2022-09-06T00:24:44.026Z,12.24
2022-09-06T00:29:51.249Z,12.24
2022-09-06T00:34:58.396Z,12.24
2022-09-06T00:40:05.673Z,12.24
2022-09-06T00:45:12.782Z,12.24
2022-09-06T00:50:19.969Z,12.24
2022-09-06T00:55:27.142Z,12.24
2022-09-06T01:00:34.329Z,12.57
2022-09-06T01:05:41.616Z,12.57
2022-09-06T01:10:48.790Z,12.24
2022-09-06T01:15:56.004Z,12.24
2022-09-06T01:21:03.202Z,12.24
2022-09-06T01:26:10.445Z,12.24
2022-09-06T01:31:17.742Z,12.24
2022-09-06T01:36:25.020Z,12.57
2022-09-06T01:41:32.202Z,12.24
2022-09-06T01:46:39.624Z,12.57
2022-09-06T01:51:46.963Z,12.24
2022-09-06T01:56:54.193Z,12.24
2022-09-06T02:02:01.422Z,12.24
2022-09-06T02:07:08.640Z,12.57
2022-09-06T02:12:15.936Z,12.24
2022-09-06T02:17:23.121Z,12.24
2022-09-06T02:22:30.297Z,12.24
2022-09-06T02:27:37.581Z,12.24
2022-09-06T02:32:44.756Z,12.24
2022-09-06T02:37:51.956Z,12.57
2022-09-06T02:42:59.148Z,12.57
2022-09-06T02:48:06.320Z,12.57
2022-09-06T02:53:14.337Z,12.57
2022-09-06T02:58:21.540Z,12.57
2022-09-06T03:03:28.669Z,12.57
2022-09-06T03:08:35.865Z,12.57
2022-09-06T03:13:43.048Z,13.85
2022-09-06T03:18:50.249Z,13.22
2022-09-06T03:23:57.420Z,12.90
2022-09-06T03:29:04.585Z,13.22
2022-09-06T03:34:11.802Z,12.93
2022-09-06T03:39:18.966Z,13.22
2022-09-06T03:44:26.156Z,13.22
2022-09-06T03:49:33.372Z,13.22
2022-09-06T03:54:40.549Z,13.22
2022-09-06T03:59:47.835Z,13.54
2022-09-06T04:04:55.045Z,13.22
2022-09-06T04:10:02.285Z,13.22
2022-09-06T04:15:09.473Z,13.22
2022-09-06T04:20:16.705Z,13.22
2022-09-06T04:25:23.916Z,12.90
2022-09-06T04:30:31.123Z,12.90
2022-09-06T04:35:38.341Z,12.90
2022-09-06T04:40:45.529Z,12.90
2022-09-06T04:45:52.877Z,12.90
2022-09-06T04:50:59.987Z,12.90
2022-09-06T04:56:07.148Z,12.90
2022-09-06T05:01:14.383Z,12.90
2022-09-06T05:06:21.526Z,12.90
2022-09-06T05:11:28.700Z,12.90
2022-09-06T05:16:35.948Z,12.90
2022-09-06T05:21:43.183Z,12.90
2022-09-06T05:26:50.378Z,12.90
2022-09-06T05:31:57.621Z,12.90
2022-09-06T05:37:04.742Z,12.90
2022-09-06T05:42:14.869Z,12.90
2022-09-06T05:47:19.112Z,13.22
2022-09-06T05:52:26.356Z,13.22
2022-09-06T05:57:33.714Z,13.22
2022-09-06T06:02:40.978Z,12.90
2022-09-06T06:07:48.154Z,12.90
2022-09-06T06:12:55.349Z,12.90
2022-09-06T06:18:02.540Z,12.90
2022-09-06T06:23:09.821Z,12.90
2022-09-06T06:28:17.045Z,12.90
2022-09-06T06:33:24.272Z,12.90
2022-09-06T06:38:31.483Z,12.90
2022-09-06T06:43:38.658Z,13.54
2022-09-06T06:48:45.836Z,13.22
2022-09-06T06:53:53.033Z,13.22
2022-09-06T06:59:00.286Z,13.22
2022-09-06T07:04:07.489Z,13.22
2022-09-06T07:09:14.648Z,12.90
2022-09-06T07:14:21.852Z,12.90
2022-09-06T07:24:36.309Z,12.90
2022-09-06T07:29:43.502Z,12.90
2022-09-06T07:34:50.692Z,12.90
2022-09-06T07:39:57.962Z,12.90
2022-09-06T07:45:05.095Z,13.22
2022-09-06T07:55:19.440Z,12.90
2022-09-06T08:00:26.644Z,12.90
2022-09-06T08:10:41.021Z,14.16
2022-09-06T08:15:48.195Z,14.46
2022-09-06T08:20:55.362Z,14.75
2022-09-06T08:26:02.676Z,14.75
2022-09-06T08:31:09.916Z,14.75
2022-09-06T08:36:17.011Z,13.83
2022-09-06T08:41:24.195Z,14.75
2022-09-06T08:46:31.469Z,14.75
2022-09-06T08:51:38.737Z,14.75
2022-09-06T08:56:45.818Z,14.75
2022-09-06T09:01:53.396Z,14.75
2022-09-06T09:07:00.529Z,14.75
2022-09-06T09:12:07.716Z,14.75
2022-09-06T09:17:14.885Z,14.75
2022-09-06T09:22:22.104Z,14.75
2022-09-06T09:27:29.380Z,14.75
2022-09-06T09:32:36.618Z,14.75
2022-09-06T09:42:51.022Z,14.46
2022-09-06T09:47:58.610Z,14.46
2022-09-06T09:53:05.792Z,14.16
2022-09-06T09:58:12.986Z,14.16
2022-09-06T10:03:20.270Z,14.16
2022-09-06T10:08:27.387Z,14.46
2022-09-06T10:13:34.543Z,14.46
2022-09-06T10:18:41.731Z,14.46
2022-09-06T10:28:56.204Z,14.16
2022-09-06T10:34:04.386Z,14.46
2022-09-06T10:39:11.614Z,15.04
2022-09-06T10:44:18.872Z,15.04
2022-09-06T10:49:26.090Z,14.46
2022-09-06T10:54:33.342Z,14.75
2022-09-06T10:59:40.599Z,14.75
2022-09-06T11:09:54.977Z,15.04
2022-09-06T11:15:02.171Z,15.04
2022-09-06T11:20:09.435Z,15.04
2022-09-06T11:25:16.568Z,15.04
2022-09-06T11:30:23.740Z,14.75
2022-09-06T11:35:30.898Z,14.75
2022-09-06T11:40:38.138Z,14.75
2022-09-06T11:45:45.395Z,14.46
2022-09-06T11:50:52.704Z,14.46
2022-09-06T11:55:59.912Z,14.46
2022-09-06T12:01:07.132Z,14.46
2022-09-06T12:06:14.300Z,15.38
2022-09-06T12:11:22.048Z,15.38
2022-09-06T12:16:29.344Z,15.38
2022-09-06T12:21:36.563Z,15.38
2022-09-06T12:26:43.819Z,15.68
2022-09-06T12:31:51.178Z,15.97
2022-09-06T12:36:58.377Z,15.97
2022-09-06T12:42:05.630Z,16.26
2022-09-06T12:47:12.858Z,16.26
2022-09-06T12:52:20.093Z,16.26
2022-09-06T12:57:27.275Z,16.54
2022-09-06T13:02:34.742Z,16.26
2022-09-06T13:07:41.632Z,16.26
2022-09-06T13:12:48.816Z,16.26
2022-09-06T13:17:56.025Z,15.97
2022-09-06T13:23:03.211Z,16.26
2022-09-06T13:28:10.570Z,16.26
2022-09-06T13:33:17.834Z,16.26
2022-09-06T13:38:25.352Z,16.26
2022-09-06T13:43:32.607Z,16.26
2022-09-06T13:48:40.193Z,16.26
2022-09-06T13:53:47.405Z,16.26
2022-09-06T13:58:54.657Z,16.54
2022-09-06T14:04:01.915Z,16.54
2022-09-06T14:09:10.026Z,16.54
2022-09-06T14:14:16.773Z,16.54
2022-09-06T14:19:24.079Z,16.54
2022-09-06T14:24:31.375Z,16.26
2022-09-06T14:29:38.623Z,16.26
2022-09-06T14:34:45.811Z,16.26
2022-09-06T14:39:53.148Z,16.26
2022-09-06T14:45:01.231Z,16.26
2022-09-06T14:50:08.478Z,16.26
2022-09-06T14:55:15.636Z,16.26
2022-09-06T15:00:22.802Z,16.26
2022-09-06T15:05:30.012Z,16.26
2022-09-06T15:10:37.312Z,16.54
2022-09-06T15:15:45.071Z,16.54
2022-09-06T15:20:52.294Z,16.43
2022-09-06T15:25:59.502Z,16.16
2022-09-06T15:31:06.810Z,16.16
2022-09-06T15:36:14.305Z,16.16
2022-09-06T15:41:21.511Z,15.89
2022-09-06T15:46:28.728Z,16.54
2022-09-06T15:51:35.900Z,17.10
2022-09-06T15:56:43.090Z,16.82
2022-09-06T16:01:50.328Z,16.82
2022-09-06T16:06:58.251Z,15.89
2022-09-06T16:12:05.460Z,16.43
2022-09-06T16:17:12.792Z,16.43
2022-09-06T16:22:20.006Z,16.43
2022-09-06T16:27:27.204Z,16.43
2022-09-06T16:32:34.393Z,16.43
2022-09-06T16:37:41.682Z,16.43
2022-09-06T16:42:48.956Z,17.89
2022-09-06T16:47:56.116Z,18.15
2022-09-06T16:53:03.380Z,17.10
2022-09-06T16:58:10.609Z,17.63
2022-09-06T17:03:17.783Z,17.37
2022-09-06T17:08:24.984Z,16.69
2022-09-06T17:13:32.138Z,16.16
2022-09-06T17:18:39.361Z,16.43
2022-09-06T17:23:46.609Z,16.16
2022-09-06T17:28:54.114Z,16.43
2022-09-06T17:34:01.627Z,16.43
2022-09-06T17:39:09.040Z,16.69
2022-09-06T17:44:16.368Z,16.69
2022-09-06T17:49:23.648Z,16.95
2022-09-06T17:54:30.825Z,16.69
2022-09-06T17:59:39.291Z,16.95
2022-09-06T18:04:46.846Z,16.95
2022-09-06T18:09:54.330Z,16.69
2022-09-06T18:15:01.858Z,16.69
2022-09-06T18:20:09.247Z,16.69
2022-09-06T18:25:16.860Z,16.16
2022-09-06T18:30:24.361Z,16.43
2022-09-06T18:35:31.696Z,16.16
2022-09-06T18:40:39.194Z,16.43
2022-09-06T18:45:46.889Z,16.16
2022-09-06T18:50:59.221Z,15.89
2022-09-06T18:56:02.149Z,15.89
2022-09-06T19:01:09.730Z,16.54
2022-09-06T19:06:17.253Z,16.54
2022-09-06T19:11:24.876Z,16.26
2022-09-06T19:16:32.496Z,16.26
2022-09-06T19:21:42.267Z,15.97
2022-09-06T19:26:47.818Z,15.68
2022-09-06T19:31:55.486Z,15.68
2022-09-06T19:37:03.047Z,15.38
2022-09-06T19:42:10.500Z,15.38
2022-09-06T19:47:18.067Z,15.38
2022-09-06T19:52:25.690Z,15.08
2022-09-06T19:57:33.295Z,15.08
2022-09-06T20:02:41.012Z,15.08
2022-09-06T20:07:48.847Z,14.77
2022-09-06T20:12:56.556Z,14.77
2022-09-06T20:18:04.174Z,14.77
2022-09-06T20:23:11.777Z,14.77
2022-09-06T20:28:19.319Z,14.77
2022-09-06T20:33:27.015Z,14.77
2022-09-06T20:38:34.633Z,14.77
2022-09-06T20:43:42.238Z,14.77
2022-09-06T20:48:49.788Z,14.77
2022-09-06T20:53:57.362Z,14.77
2022-09-06T20:59:04.677Z,14.46
2022-09-06T21:04:11.930Z,14.77
2022-09-06T21:09:19.111Z,14.46
2022-09-06T21:14:26.369Z,14.46
2022-09-06T21:19:33.699Z,14.46
2022-09-06T21:24:40.865Z,14.46
2022-09-06T21:29:48.055Z,14.46
2022-09-06T21:34:55.250Z,14.14
2022-09-06T21:40:02.556Z,14.14
2022-09-06T21:45:09.727Z,14.14
2022-09-06T21:50:16.916Z,14.14
2022-09-06T21:55:24.097Z,14.14
2022-09-06T22:00:31.385Z,14.14
2022-09-06T22:05:38.538Z,14.14
2022-09-06T22:10:45.782Z,14.14
2022-09-06T22:15:53.069Z,14.14
2022-09-06T22:21:00.231Z,14.14
2022-09-06T22:26:07.413Z,14.14
2022-09-06T22:31:14.623Z,14.14
2022-09-06T22:36:21.784Z,14.14
2022-09-06T22:41:28.968Z,14.14
2022-09-06T22:46:36.242Z,14.14
2022-09-06T22:51:43.335Z,14.14
2022-09-06T22:56:50.548Z,14.14
2022-09-06T23:01:57.792Z,14.14
2022-09-06T23:07:04.999Z,14.46
2022-09-06T23:12:12.159Z,14.14
2022-09-06T23:17:19.370Z,14.46
2022-09-06T23:22:26.572Z,14.46
2022-09-06T23:27:33.816Z,14.46
2022-09-06T23:32:41.027Z,14.46
2022-09-06T23:37:48.187Z,14.46
2022-09-06T23:42:55.423Z,14.46
2022-09-06T23:48:02.675Z,14.46
2022-09-06T23:53:09.869Z,14.46
2022-09-06T23:58:17.131Z,14.14
